Filtrer par Nom Sexe Groupe d'age
Picarde Baie de Somme MedioFondo 2003
RG. DOS. TEMPS CAT RG. POINTS
1 2263 DEGREZ FRANCK 03:40:49:000 D 1 150.00 SAILLY FLIBEAUCOURT, FRANCE
2 1528 DOUZENEL DAVID 03:45:00:000 D 2 149.50 BETHUNE, FRANCE
3 2195 DEFOSSE CHRISTOPHE 03:45:58:000 D 3 149.00 VAUCHELLES LES QUESNOY, France
4 2368 MONIER ARNAUD 03:45:58:800 D 4 148.50 LIGNE REUIL, FRANCE
5 1510 DEFROMONT JEAN-YVES 03:45:59:000 D 5 148.00 HAUTEVILLE, FRANCE
6 2204 LECOIN DIDIER 03:45:59:000 D 6 147.50 ABBEVILLE, FRANCE
7 2370 FORTIN JEROME 03:45:59:000 D 7 147.00 AMIENS, FRANCE
8 1541 RENSON PIERRE 03:46:00:000 C 1 150.00 BONCELLES, BELGIQUE
9 2017 RICHEFORT J.MICHEL 03:46:00:000 F 1 150.00 VELIZY, FRANCE
10 170 DI GLERIA OLIVIER 03:46:01:000 D 8 146.50 CHEVENOZ, FRANCE
11 2046 MALLOTTEAUX LUCIEN-JEAN 03:46:01:000 F 2 149.50 FALISOLLE, BELGIQUE
12 2225 BOQUET OLIVIER 03:46:01:000 C 2 149.50 MAISON ROLAND, FRANCE
13 2372 MACHADO CARLOS 03:46:01:000 D 9 146.00 BRUXELLES, BELGIQUE
14 2047 MALLOTTEAUX FABIAN 03:46:01:400 D 10 145.50 SAMBREVILLE, BELGIQUE
15 2142 HAERDEN JEAN PIERRE 03:46:01:600 E 1 150.00 AMAY, BELGIQUE
16 2077 DOMALAIN FRANCOIS 03:46:01:900 D 11 145.00 ANDRESY, France
17 2141 BOUFFART PATRICE 03:46:02:000 C 3 149.00 ETAPLES, FRANCE
18 2317 SCREVE BRUNO 03:46:02:000 E 2 149.50 HIRSON, France
19 1553 ANTONIETTI GUILLAUME 03:46:03:000 D 12 144.50 LILLE, FRANCE
20 2152 DUFOSSE FRANCOIS 03:46:04:900 D 13 144.00 VILLER S/ MAREUIL, FRANCE
21 2379 LENISA FLORENT 03:46:06:000 E 3 149.00 BOZEL, FRANCE
22 2205 LECOIN ARMAND 03:46:07:600 F 3 149.00 MIANNAY, FRANCE
23 2139 HONE PAUL 03:46:09:100 D 14 143.50 OLD COULSDON, Royaume-Uni
24 1537 GIUSTIZIERI EMMANUEL 03:46:10:000 C 4 148.50 GRACE HOLLOGNE, Belgique
25 2270 PAUCHET JOEL 03:46:11:000 F 4 148.50 SAILLY FLIBEAUCOURT, FRANCE
26 2202 CORBILLON CHRISTOPHE 03:46:19:000 D 15 143.00 MAREUIL-CAUBERT, FRANCE
27 2099 LEBEAU PHILIPPE 03:47:12:000 E 4 148.50 NOINTEL, FRANCE
28 2130 DESMEDT FRANCIS 03:47:53:000 D 16 142.50 ESCOUSSENS, FRANCE
30 2167 BALLET HENK 03:49:29:000 D 17 142.00 ZINGEM, BELGIQUE
32 2287 HOBE PATRICK 03:53:57:000 E 6 147.50 SERAING, BELGIQUE
33 1521 SANNIER CHRISTIAN 03:54:07:000 F 5 148.00 FONTENAY TRESIGNY, FRANCE
34 2328 VAN HEREL PIETER JAN 03:54:38:000 D 18 141.50 DELFT, Pays-Bas
35 1533 BAS PHILIPPE 03:54:39:000 E 7 147.00 ST QUENTIN, FRANCE
36 2165 RECO ANDRE 03:54:39:500 F 6 147.50 LIMAY, FRANCE
37 2198 DEVERITE BERTRAND 03:54:39:500 D 19 141.00 FONTAINE LE SEC, FRANCE
38 1505 BOULEUX PATRICE 03:54:40:000 E 8 146.50 JUMIEGES, FRANCE
39 2120 TRUPTIL HERVE 03:54:40:000 D 20 140.50 SAINT-NICOLAS DE LA HAIE, FRANCE
41 2115 BERLY JEAN MARC 03:54:42:500 E 9 146.00 LAMORLAYE, FRANCE
42 2022 SCHWIND MICHEL 03:54:43:000 F 7 147.00 BOURDEAUX, FRANCE
43 1520 SANNIER FRANCK 03:54:44:000 D 21 140.00 FONTENAY TRESIGNY, FRANCE
44 1539 FRANCK NICOLAS 03:54:44:000 D 22 139.50 ESNEUX, BELGIQUE
45 2315 LOEUILLET JEAN-PIERRE 03:54:44:000 D 23 139.00 MERICOURT, FRANCE
46 2399 PEIFFER THIERRY 03:54:44:000 E 10 145.50 NEUVILLE ST AMAND, FRANCE
47 1514 LAFEUILLE J.PAUL 03:54:45:000 F 8 146.50 ST QUENTIN, FRANCE
48 1515 QUATRESOLS STEPHANE 03:54:45:000 C 5 148.00 SAINT MIHIEL, FRANCE
49 2374 PELTIER LAURENT 03:54:46:000 E 11 145.00 MAREUI-CAUBERT, FRANCE
50 2137 CALANDRI J.FRANCOIS 03:54:47:000 E 12 144.50 CLAMART, FRANCE
51 2316 MILET PIERRE 03:54:48:700 E 13 144.00 HIRSON, FRANCE
52 2319 GERARDIN ALEX 03:54:49:200 F 9 146.00 AIGLEMONT, FRANCE
53 2281 MEQUINION PATRICK 03:54:50:600 D 24 138.50 FEUQUIERES EN VIMEU, France
54 2321 FAUQUEMBERGUE GAUTIER 03:55:07:000 C 6 147.50 ABBEVILLE, FRANCE
55 2361 LEFEBVRE THIERRY 03:55:07:600 D 25 138.00 CARLY, FRANCE
56 2224 BOQUET PIERRE 03:55:08:000 F 10 145.50 MAISON ROLAND, FRANCE
57 2386 CARLIER FABRICE 03:55:09:900 D 26 137.50 HALLENCOURT, France
58 2176 BERLE FRANCOIS 03:56:31:000 D 27 137.00 LIERCOURT, FRANCE
59 2325 KOOLWIJK REIN JAN 03:56:57:000 D 28 136.50 ROTTERDAM, BELGIQUE
60 2185 KUENHEN JEROME ET SYLVIE 03:57:27:000 D 29 136.00 ABBEVILLE, France
61 140 HEITZ CLAUDE 04:02:29:000 G 1 150.00 CAUDEBEC LES ELBEUF, FRANCE
62 1506 BOULEUX DENIS 04:03:29:000 E 14 143.50 JUMIEGES, FRANCE
63 272 LENOIR DANIEL 04:04:43:500 E 15 143.00 GUARBECQUE, FRANCE
64 2360 KOK WINAND 04:04:59:200 D 30 135.50 BREDA, Pays-Bas
65 1535 CARFANTAN DANIEL 04:05:01:000 C 7 147.00 ST QUENTIN, FRANCE
66 2331 JAEGLE MARC 04:05:01:100 D 31 135.00 STRASBOURG, FRANCE
67 2241 DELMAERE GEORGES 04:05:01:900 E 16 142.50 AIX LES BAINS, FRANCE
68 2357 BOURSIGAUX THIERRY 04:05:02:000 D 32 134.50 MONCHY ST ELOI, FRANCE
69 2043 DERISBOURG CHRISTIAN 04:05:02:300 E 17 142.00 HOUDAIN, FRANCE
70 2140 RAEPSAET BRUNO 04:05:03:000 D 33 134.00 FONTENAY AUX ROSES, FRANCE
71 2170 TOPIN SYLVAIN 04:05:04:000 C 8 146.50 ARPAJON, FRANCE
72 2132 BOISSADIE JEAN 04:05:04:400 G 2 149.50 PUISEUX EN RETZ, FRANCE
73 1540 DIX ROBIN 04:05:05:000 E 18 141.50 FARNBOROUGH, Royaume-Uni
74 2008 BROUILLER MARCEL 04:05:06:000 E 19 141.00 SERAINCOURT, FRANCE
75 2302 LARDAUX J.CLAUDE 04:05:06:000 F 11 145.00 CHARLEVILLE MEZIERES, FRANCE
76 2326 MITTENDORFF ILSE 04:05:06:000 A 1 150.00 DELFT, Pays-Bas
77 2188 MANACH FRANCOIS 04:05:07:200 E 20 140.50 HALLENCOURT, FRANCE
78 1519 CHAMPEY LIONEL 04:05:08:000 E 21 140.00 CABRIES, FRANCE
79 2144 SAVARY SERGE 04:05:09:000 G 3 149.00 GRUMESNIL, FRANCE
80 2178 CAILLY JEAN FRANCOIS 04:05:09:000 E 22 139.50 MOYENNEVILLE, FRANCE
81 2306 CORNU YVES 04:05:09:200 F 12 144.50 ST RIQUIER, FRANCE
82 2031 EMORINE PASCAL 04:05:10:000 D 34 133.50 BORNEL, FRANCE
83 2196 ROUSEL PASCAL 04:05:10:000 F 13 144.00 DRUCAT, FRANCE
84 2266 LOLIERON BRUNO 04:05:10:000 E 23 139.00 SAILLY FLIBEAUCOURT, FRANCE
85 2109 HOTIN HENRI 04:05:11:000 F 14 143.50 LUCHY, FRANCE
86 1552 ROUSSEL ARNAUD 04:05:13:000 D 35 133.00 MARCQ EN BAROEUL, FRANCE
87 2337 PARMENTIER REGIS 04:05:13:000 D 36 132.50 LILLE, FRANCE
88 1544 STEVENARD PHILIPPE 04:05:16:000 E 24 138.50 ST LEONARD, FRANCE
89 2131 MARQUANT ERIC 04:05:17:500 D 37 132.00 FORCEVILLE EN VIMEU, FRANCE
90 2269 MAILLY FREDERIC 04:05:19:000 E 25 138.00 PERNES LES FONTAINES, FRANCE
91 2200 DESENCLOS CHRISTIAN 04:05:20:000 E 26 137.50 CAOURS, FRANCE
92 2127 DARCOURT DOMINIQUE 04:05:23:000 E 27 137.00 CITERNES, FRANCE
93 2363 HANOT MICHEL 04:05:36:000 E 28 136.50 PENIN, FRANCE
94 502 LOUCHEL PATRICK 04:06:17:000 F 15 143.00 ABBEVILLE, FRANCE
95 2256 SCHNEIDER GREGORY 04:07:07:000 C 9 146.00 ABBEVILLE, France
96 2149 FREMONT YVES 04:07:08:000 E 29 136.00 NEUILLY SOUS CLERMONT, FRANCE
97 2247 AUVRE PATRICK 04:07:08:000 E 30 135.50 ST NICOLAS D'ALIERMONT, FRANCE
98 2246 DUMANOIR LAURENT 04:07:10:000 E 31 135.00 NOTRE DAME D'ALIERMONT, FRANCE
99 2248 PETIT ERIC 04:07:11:000 E 32 134.50 ST NICOLAS D'ALIERMONT, FRANCE
100 2280 BAROCCO JACKY 04:07:11:000 E 33 134.00 ABBEVILLE, FRANCE
101 2298 FOURDRINIER JEAN LOUIS 04:07:11:500 F 16 142.50 MAISON ROLAND, FRANCE
102 2061 DUFOUR J.MARIE 04:07:12:000 G 4 148.50 ST NICOLAS D'ALIERMONT, FRANCE
103 2349 LE BOURGOCQ DOMINIQUE 04:07:12:100 E 34 133.50 LE TRAIT, FRANCE
104 2098 COLLET REGIS 04:07:12:500 E 35 133.00 OUTREAU, FRANCE
105 2207 VEYS DOMINIQUE 04:07:12:900 D 38 131.50 LE CROTOY, FRANCE
106 2242 LEBEL PHILIPPE 04:07:13:000 F 17 142.00 ABBEVILLE, FRANCE
107 2324 RACE REGIS 04:07:13:900 F 18 141.50 SENLIS, FRANCE
108 2075 COURTOIS RAYMOND 04:07:14:000 G 5 148.00 SULLY, FRANCE
109 2253 GOOSSENS JEAN CLAUDE 04:07:14:000 E 36 132.50 STERREBEECK, BELGIQUE
110 2052 WRIGHT JAMES 04:07:15:000 E 37 132.00 OXFORD, Royaume-Uni
111 2395 LEROUX YVES MARY 04:07:16:000 C 10 145.50 SALEUX, FRANCE
112 2254 LEROUX JEAN-PIERRE 04:07:17:000 F 19 141.00 ABBEVILLE, FRANCE
113 2199 DELPIERRE SEBASTIEN 04:07:18:000 C 11 145.00 ALLERY, FRANCE
114 2252 PORQUET ALAIN 04:07:21:000 C 12 144.50 AMIENS, FRANCE
115 2208 BERTHE JEAN MARC 04:07:22:400 D 39 131.00 ABBEVILLE, FRANCE
116 2340 TROUILLET PASCAL 04:07:23:000 E 38 131.50 TRACY LE VAL, FRANCE
117 2339 CARTON GILBERT 04:07:23:900 F 20 140.50 OOSTENDE, BELGIQUE
118 1527 DOUZENEL FLORENCE 04:07:25:000 A 2 149.50 BETHUNE, FRANCE
119 2229 BRUNET DAVID 04:07:25:000 D 40 130.50 RIBEAUCOURT, FRANCE
120 2358 GAY BERNARD 04:07:26:000 E 39 131.00 BOISLEUX AU MONT, FRANCE
121 2157 VAUGHAN MAURICE 04:07:27:100 E 40 130.50 VERQUIGNEUL, FRANCE
122 2129 AGRARE J. FRANCOIS 04:07:27:200 F 21 140.00 AUMATRE, FRANCE
123 2197 ROUSSEL DANY 04:07:28:000 E 41 130.00 ABBEVILLE, France
124 2376 PHILLIPS KEN 04:07:28:000 G 6 147.50 HORSHAM, Royaume-Uni
125 2338 MERCHIE DOMINIQUE 04:07:30:000 E 42 129.50 SAILLY LEZ LANNOY, FRANCE
126 2094 COURTIN FREDDY 04:07:31:000 G 7 147.00 CRIEL S/MER, FRANCE
127 1536 DUPONT XAVIER 04:07:36:000 C 13 144.00 SPRIMONT, BELGIQUE
128 2128 LESMARIO ROBERT 04:08:08:000 F 22 139.50 ABBEVILLE, FRANCE
129 1524 BOLLIET DENIS 04:08:10:000 F 23 139.00 GILLY SUR ISERE, FRANCE
130 166 THOPART CHRISTOPHE 04:11:03:000 D 41 130.00 CHANAS, FRANCE
131 2383 SELLIER MARC 04:14:28:000 E 43 129.00 HALLENCOURT, France
132 2036 THOMAS BERNARD 04:14:52:000 F 24 138.50 BELLE EGLISE, FRANCE
133 2320 DENIS FABRICE 04:14:52:800 E 44 128.50 CHARLEVILLE MEZIERES, FRANCE
134 2210 BOCLET JEAN-PHILIPPE 04:14:53:000 C 14 143.50 EPAGNE, France
135 2211 LEGUIFF FRANCK 04:14:53:000 D 42 129.50 ABBEVILLE, FRANCE
136 2262 DEGREZ FRANCIS 04:14:53:900 E 45 128.00 NEUFMOULIN, FRANCE
137 2221 BERNARD THIERRY 04:14:56:000 D 43 129.00 BERNES SUR OISE, France
138 175 MARK HAYLETT 04:14:58:000 D 44 128.50 , Royaume-Uni
139 471 GAUTHIER DOMINIQUE 04:15:04:000 E 46 127.50 LESTANVILLE, FRANCE
140 88 AYMARD JACQUES 04:15:16:000 G 8 146.50 MAUGUIO, FRANCE
141 89 FERCHAUD JEAN FRANCOIS 04:15:22:000 F 25 138.00 FLEMOLLE, BELGIQUE
142 336 DILKES ANDREW 04:15:38:700 C 15 143.00 FARNBOROUGH, Royaume-Uni
143 2186 LEDEZ FREDERIC 04:15:48:000 C 16 142.50 HALLENCOURT, France
144 2291 HALLETT WILLIAM 04:15:48:700 E 47 127.00 ABBEVILLE, FRANCE
145 2209 SOUPLY JEAN MARC 04:15:49:500 F 26 137.50 ABBEVILLE, FRANCE
146 1511 HENNERE JEAN CLAUDE 04:16:04:000 E 48 126.50 IZEL LES HAMEAUX, FRANCE
147 1531 DESCHEERAEKER RIK 04:16:54:000 E 49 126.00 WAREGEM, BELGIQUE
148 568 LE DORLOT PHILIPPE 04:17:17:100 E 50 125.50 SUCY EN BRIE, FRANCE
149 2378 FONTAINE CYRIEN 04:17:27:000 C 17 142.00 ALFORTVILLE, FRANCE
150 159 THIBAULT PHILIPPE 04:17:29:000 E 51 125.00 CYSOING, FRANCE
151 601 DANGLETERRE CYRIL 04:17:31:300 D 45 128.00 DAINVILLE, France
152 143 CHASSAT PIERRE 04:17:35:200 F 27 137.00 PUTEAUX, FRANCE
153 2308 GUILLAUME CHRISTIAN 04:19:20:000 E 52 124.50 HEM, FRANCE
154 2260 BLIN MICHEL 04:19:21:600 F 28 136.50 BRUCAMPS, FRANCE
155 2143 BENOIT JEAN MICHEL 04:20:07:000 E 53 124.00 VERQUIN, FRANCE
156 2307 DUBOIS BERNARD 04:20:41:000 E 54 123.50 WASQUEHAL, FRANCE
157 2309 LADUREAU OLIVIER 04:20:41:000 E 55 123.00 HEM, FRANCE
158 2148 HOLLANDER BERNARD 04:22:08:000 F 29 136.00 LAPUGNOY, FRANCE
159 2146 KARAS FREDERIC 04:22:09:000 E 56 122.50 CALONNE RICOUART, FRANCE
160 2145 JOAQUIM STEPHANE 04:22:10:000 C 18 141.50 ST VENANT, FRANCE
161 2387 DELIENNE CHRISTIAN 04:22:54:000 F 30 135.50 HALLENCOURT, FRANCE
162 2213 MAQUET GERARD 04:23:29:000 F 31 135.00 CAYEUX SUR MER, FRANCE
163 2274 FACHE PASCAL 04:23:31:100 E 57 122.00 ABBEVILLE, FRANCE
164 2154 NOZIERE BRUNO 04:23:38:000 D 46 127.50 EAUCOURT, FRANCE
165 1530 CAPIAUX DOMINIQUE 04:25:39:000 F 32 134.50 BOUSIES, FRANCE
167 2009 LEDENT JACKIE 04:25:40:800 E 59 121.00 ST GIRONS, FRANCE
168 2335 BAYLEY PETER 04:25:41:000 F 33 134.00 LYDD KENT, Royaume-Uni
169 2038 GODART CHRISTIAN 04:25:41:200 F 34 133.50 EVREUX, FRANCE
170 507 BANAS THIERRY 04:25:42:000 D 47 127.00 ABBEVILLE, FRANCE
171 2076 COUDRAY XAVIER 04:25:42:000 E 60 120.50 LES VENTES, FRANCE
172 2079 CADIOU DIDIER 04:25:42:000 E 61 120.00 DAMVILLE, FRANCE
173 2265 JUNGMANN WILLIAM 04:25:42:000 E 62 119.50 ABBEVILLE, FRANCE
174 2289 HUBATZ JOEL 04:25:43:000 F 35 133.00 LAON, FRANCE
175 2388 VRIDAUD SEBASTIEN 04:25:43:300 D 48 126.50 HALLENCOURT, FRANCE
176 2125 DELANNOY MATHIEU 04:25:45:000 C 19 141.00 CROISILLES, FRANCE
177 2072 BANTON ROGER 04:25:45:700 F 36 132.50 SUTTON COLDFIELD, Royaume-Uni
178 1512 LESOING SAMUEL 04:25:50:000 C 20 140.50 GIVENCHY LE NOBLE, FRANCE
179 2111 CHARVIER BRUNO 04:26:09:000 E 63 119.00 LONGUEIL STE MARIE, FRANCE
180 2264 JUNGMANN FABRICE 04:26:36:000 E 64 118.50 ABBEVILLE, FRANCE
181 2166 DEVOYE/BULEUX PATRICK/DOMINIQUE 04:28:32:000 E 65 118.00 ST LEGER LES DOMART, FRANCE
182 2122 BONNECHERE FRANCOIS 04:29:25:000 E 66 117.50 RUMIGNY, FRANCE
183 2135 SANTOS SILVA JOSE 04:29:26:300 E 67 117.00 VILLERS COTTERETS, FRANCE
184 2187 MACHY MARC 04:29:26:300 F 37 132.00 LONG, FRANCE
185 355 WEISS GILLES 04:29:27:000 F 38 131.50 LA CHAPELLE EN VEXIN, FRANCE
186 2385 CARLIER MARC 04:32:13:000 F 39 131.00 HALLENCOURT, FRANCE
187 2323 VERDOODT LUC 04:32:14:300 D 49 126.00 WILLEBROEK, BELGIQUE
188 2162 LACROIX JEAN PIERRE 04:32:14:700 E 68 116.50 OZOIR LA FERRIERE, FRANCE
189 2150 MENET JOEL 04:32:14:900 F 40 130.50 BREUIL LE SEC, FRANCE
190 2007 FORBES ALISTAIR 04:32:15:000 F 41 130.00 OFFENBECH, ALLEMAGNE
191 2327 RABBERS ERIK 04:32:41:000 D 50 125.50 ROTTERDAM, Pays-Bas
192 2104 VERBESSELT JACK 04:32:41:900 E 69 116.00 CARNIERES, BELGIQUE
193 2035 BOTTE PASCAL 04:32:43:500 E 70 115.50 VALDAMPIERRE, FRANCE
194 2067 FONTAINE JEAN PAUL 04:32:44:000 E 71 115.00 LIEVIN, FRANCE
196 2294 DEPERSIN MICHEL 04:33:33:000 F 42 129.50 ABBEVILLE, FRANCE
197 2239 DESJARDIN GERARD 04:35:01:000 G 9 146.00 HAUTVILLERS, FRANCE
198 2173 LOURME GERALD 04:35:04:300 E 72 114.50 CANDAS, FRANCE
199 2216 PAPILLON SERGE 04:35:04:700 F 43 129.00 ABBEVILLE, FRANCE
200 2220 BERNARD JEAN MARIE 04:35:05:000 G 10 145.50 ABBEVILLE, FRANCE
201 36 BRIQUET ALBERT 04:35:06:000 G 11 145.00 CATUS, FRANCE
202 1508 BOUILLAUX CHRISTIAN 04:35:07:000 F 44 128.50 CREVE COEUR LE GRAND, FRANCE
203 2192 BUTIN JEAN MARIE 04:35:07:300 G 12 144.50 DRUCAT, FRANCE
204 2059 BRASSEUR J.LOUIS 04:35:08:000 F 45 128.00 CANDAS, FRANCE
205 2234 FETRE JACKY 04:35:10:000 F 46 127.50 NEUF MOULIN, FRANCE
206 2259 PETIT FRANCIS 04:35:10:400 F 47 127.00 ABBEVILLE, France
207 1516 WILLEMETZ PIERRE 04:35:12:000 E 73 114.00 HAILLICOURT, FRANCE
208 2271 PATIENCE JENNIFER 04:35:13:000 B 1 150.00 ESSEX, Royaume-Uni
209 2097 JACQUET VINCENT 04:35:19:000 E 74 113.50 BINCHE, BELGIQUE
210 2068 MOORE PAUL 04:35:20:000 G 13 144.00 SUTTON COLDFIELD, Royaume-Uni
211 2011 MACAUX VINCENT 04:35:27:000 E 75 113.00 MENNECY, France
212 2012 BRISSY ALAIN 04:35:48:000 E 76 112.50 CLESLES, France
213 2078 QUEMERE CHARLES 04:35:59:000 G 14 143.50 CAYEUX SUR MER, FRANCE
214 2095 FACHE MARYLINE 04:35:59:000 B 2 149.50 LANDAS, FRANCE
215 2348 CADART CHRISTIAN 04:36:04:000 F 48 126.50 VILLENEUVE LE ROI, FRANCE
216 2096 DARRAS CLAUDE 04:36:28:000 F 49 126.00 BEUVRY LA FORET, FRANCE
217 1507 GAILLARD PATRICK 04:36:30:000 F 50 125.50 CHEVILLY LA RUE, FRANCE
218 2123 MARRE XAVIER 04:36:41:000 F 51 125.00 CARNIERES, BELGIQUE
219 2048 MAURY STEPHANE 04:37:17:000 E 77 112.00 NANTERRE, FRANCE
220 2389 MOPTY VINCENT 04:37:17:000 D 51 125.00 GOLANCOURT, FRANCE
221 2226 DORCHIES PATRICK 04:37:22:400 E 78 111.50 MAISON ROLAND, FRANCE
222 1548 WIDENT ALAIN 04:37:31:000 F 52 124.50 FROISSY, FRANCE
223 2010 DUPUIS PASCAL 04:37:32:000 F 53 124.00 VILLEJUIF, FRANCE
224 2013 VANDROTH PIERRE 04:37:58:000 E 79 111.00 MAZINGARBE, FRANCE
225 2334 MAY KENTON 04:38:13:000 D 52 124.50 CANTERBURY, Royaume-Uni
226 2322 OP DE BEECK FREDDY 04:38:15:000 F 54 123.50 KAPELLE/BOS, BELGIQUE
227 462 CLINTON ASKEW 04:38:25:000 E 80 110.50 OXSHOTT, Royaume-Uni
228 2164 LEBOUCHER MICHEL 04:38:59:000 G 15 143.00 PAVILLY, FRANCE
230 2015 CROPPER LYNNE 04:39:01:000 B 3 149.00 NR HERTFORD HERTS, Royaume-Uni
231 2060 MONNEREAU CLAUDE 04:39:02:000 G 16 142.50 MORANGIS, FRANCE
232 2088 LECAUDE J.JACQUES 04:39:03:200 F 55 123.00 BLACQUEVILLE, FRANCE
233 2314 ROUARD BASTIEN 04:39:33:000 C 21 140.00 SORINNE LA LONGUE, BELGIQUE
234 2062 HOBON PAUL 04:39:50:000 G 17 142.00 ELBEUF, FRANCE
235 2086 BREVIER OLIVIER 04:40:22:000 D 53 124.00 PAVILLY, FRANCE
236 2158 VOURCH ANDRE 04:40:23:500 D 54 123.50 MONTESSON, FRANCE
237 2375 HONE BRIAN 04:40:23:900 G 18 141.50 HORSHAM, WEST SUSSEX, Royaume-Uni
238 2032 RIBLON JEAN BERNARD 04:40:24:000 F 56 122.50 NEUILLY EN THELLE, FRANCE
239 2034 BERNON PATRICK 04:40:25:100 E 82 109.50 ANDEVILLE, FRANCE
240 2235 ANQUET CHRISTIAN 04:40:26:000 E 83 109.00 HUPPY, FRANCE
241 2278 ANSANAY DIDIER 04:40:27:000 E 84 108.50 DRAVEIL, FRANCE
242 2296 MOUTTE MARCEL 04:40:27:000 F 57 122.00 ANGERVILLIERS, FRANCE
243 2297 FOURDRINIER J.PIERRE 04:40:27:900 F 58 121.50 MAISON ROLAND, FRANCE
244 2151 QUADPEERDS MICHEL 04:40:29:000 F 59 121.00 VILLERS ST PAUL, FRANCE
245 2171 DEMONCEAUX ALAIN 04:40:29:000 E 85 108.00 BURY, FRANCE
246 1547 TERRONES GEORGES 04:40:31:000 D 55 123.00 ST MAURICE, FRANCE
247 1549 FLEURY SYLVAIN 04:40:31:000 E 86 107.50 STE GENEVIEVE DES BOIS, FRANCE
248 2343 AISSI NADIR 04:40:31:500 E 87 107.00 VILLENEUVE LE ROI, FRANCE
249 2237 LEFEBVRE EMMANUEL 04:40:32:000 D 56 122.50 AMIENS, FRANCE
250 2106 GONDEK SERGE 04:40:34:000 F 60 120.50 ORRY LA VILLE, FRANCE
251 2351 FOURNIER CHRISTIAN 04:40:34:000 E 88 106.50 ANDEVILLE, FRANCE
252 2074 JEFFERIES ROY 04:40:35:000 F 61 120.00 DERBYSHIRE, Royaume-Uni
253 2371 CAPOVILLA JEAN PIERRE 04:40:36:000 F 62 119.50 BEAUVAIS, FRANCE
254 2108 SMOLAREK J.PAUL 04:40:37:000 F 63 119.00 CAMPAGNE-LES-HESPIN, FRANCE
255 2117 HOURLIER BERNARD 04:40:40:000 I 1 150.00 NYONS, FRANCE
256 2161 PAINE ANTHONY 04:40:40:600 F 64 118.50 BATH, Royaume-Uni
257 2063 HOBON ANNICK 04:40:45:000 B 4 148.50 ELBEUF, FRANCE
258 2342 TESTON PATRICE 04:40:55:000 F 65 118.00 ATHIS MONS, FRANCE
259 2033 VERVIN THIERRY 04:41:02:000 D 57 122.00 BORNEL, FRANCE
260 1550 DESCAMPS DENIS 04:41:28:000 D 58 121.50 FLIXECOURT, FRANCE
261 2240 BEHRI RENE 04:41:28:300 D 59 121.00 YONVAL, FRANCE
262 2089 PERRIER JEAN PHILIPPE 04:41:30:000 D 60 120.50 PAVILLY, FRANCE
263 521 HOWARD PAUL 04:45:44:000 D 61 120.00 BURGESSMILL, Royaume-Uni
264 2112 FROMENTIN ROBERT 04:45:55:000 G 19 141.00 SAINT-GOBAIN, FRANCE
265 2362 GOZET DANIEL 04:46:02:000 F 66 117.50 DUNKERQUE, FRANCE
266 2377 THIBOUW PATRICK 04:46:30:000 F 67 117.00 VAUCHELLES LES QUENOY, FRANCE
267 2175 AUBRON BERNARD 04:46:45:000 G 20 140.50 CAOURS L HENRE, FRANCE
268 1546 DEVILLERS JEAN-MICHEL 04:47:10:000 E 89 106.00 Clermont, France
269 526 NIVAULT OLIVIER 04:47:22:000 E 90 105.50 DAINVILLE, FRANCE
270 449 SOCKEEL MARC 04:47:32:000 E 91 105.00 GRENAY, France
271 383 SAUPIN JACQUES 04:48:18:500 F 68 116.50 PAVILLY, FRANCE
272 254 LAMARCHE ERIC 04:50:38:000 E 92 104.50 AVON, FRANCE
273 332 GUFFROY MICHEL 04:50:39:000 F 69 116.00 CANAPLES, FRANCE
274 379 BINNS JOHN 04:50:40:000 E 93 104.00 LONDON, FRANCE
276 2201 LECOMTE JOSE 04:51:24:000 E 94 103.50 BELLANCOURT, FRANCE
278 2070 MORGAN ROBERT 04:52:41:000 G 21 140.00 WALSALL (WEST MIDLANDS), Royaume-Uni
279 2073 KILBOURNE PAUL 04:52:41:000 F 70 115.50 RUGELEY, Royaume-uni
280 2057 VALDIN SYLVAIN 04:52:41:900 D 62 119.50 CATENOY, FRANCE
281 2071 RUSSEL MORGAN 04:52:42:400 D 63 119.00 WALSALL (WEST MIDLANDS), Royaume-Uni
282 2024 COMBES PHILIPPE 04:53:02:000 G 22 139.50 ST SEBASTIEN DE MORSENT, FRANCE
283 2193 FLAMANT NICOLAS 04:53:30:000 C 22 139.50 PONT REMY, FRANCE
284 2329 POST VAN DER MOLEN DANIELLE 04:53:37:000 A 3 149.00 ROTTERDAM, Pays-Bas
285 2056 VALDIN ANDR 04:53:46:000 G 23 139.00 MOGNEVILLE, FRANCE
286 2330 DEPERSIN DANIEL 04:53:48:000 F 71 115.00 ABBEVILLE, FRANCE
287 2232 BOURY NICOLAS 04:54:33:000 C 23 139.00 VILLERS BRETONNEUX, FRANCE
288 2100 BIGNON ROGER 04:55:43:000 F 72 114.50 ORRY LA VILLE, FRANCE
289 2107 MORENO PEDRO 04:55:44:000 E 95 103.00 LA CHAPELLE EN SERVAL, FRANCE
290 2126 CELMIS GERARD 04:55:44:800 F 73 114.00 COYE LA FORET, FRANCE
291 2172 SINOQUET PASCAL 04:55:45:000 E 96 102.50 ABBEVILLE, FRANCE
292 2312 DEBARSY BERNARD 04:55:46:000 F 74 113.50 SORINNE LA LONGUE, BELGIQUE
293 2236 BOUTTE ERIC 04:55:55:000 D 64 118.50 HUPPY, FRANCE
294 2064 BERNARDI FRANK 04:56:08:000 E 97 102.00 MORIGNY CHAMPIGNY, FRANCE
295 2093 GEST MARCEL 04:57:14:000 F 75 113.00 BARENTIN, FRANCE
296 2000 DENIEL JACQUES 04:57:15:000 F 76 112.50 LINSELLES, FRANCE
297 2029 JAMRISKA DIDIER 04:57:32:000 D 65 118.00 BORNEL, FRANCE
298 2138 LEROUX J.YVES 04:57:53:000 E 98 101.50 HERICOURT EN CAUX, FRANCE
299 2222 BOURBON J.MARC 04:57:54:100 E 99 101.00 ABBEVILLE, FRANCE
300 2214 THIEBAUT HERVE 04:57:57:300 E 100 100.50 ABBEVILLE, FRANCE
301 2080 HUBERT HERVE 04:58:28:000 E 101 100.00 BARENTIN, FRANCE
302 2364 VAN HUMMELEN WILLY 04:58:31:000 G 24 138.50 HUMBEEK GRIMBERGEN, BELGIQUE
303 1542 BRET PASCAL 04:58:37:000 D 66 117.50 ROSNY SOUS BOIS, FRANCE
304 2163 OLMINI FRANCOIS 04:59:19:000 F 77 112.00 CHAMPIGNY SUR MARNE, FRANCE
305 2301 DUBOC CLAUDE 04:59:20:300 G 25 138.00 LE BOSC ROGER EN ROUMOIS, FRANCE
306 2084 HERUBERT JEAN MICHEL 04:59:21:000 E 102 99.50 CARVILLE LA FOLLETIERE, FRANCE
307 2255 ROUSSEL DANIEL 04:59:21:300 G 26 137.50 FONTAINE HEUDEBOURG, FRANCE
308 2085 BEZIRARD STEPHANE 04:59:24:000 D 67 117.00 VASSONVILLE, FRANCE
309 2005 STREET MICHAEL 05:00:25:000 G 27 137.00 BENFLEET, Royaume-Uni
310 606 BOGACZYK J.CLAUDE 05:00:43:000 F 78 111.50 ROUVROY, FRANCE
311 45 COLLIN FABRICE 05:00:48:200 E 103 99.00 BEAUVAIS, FRANCE
312 608 TARDIF HERVE 05:00:54:000 E 104 98.50 ROUVROY, FRANCE
313 2087 OEUILLIOT ALAIN 05:01:53:000 E 105 98.00 LIMESY, FRANCE
314 2227 PREVOST DOMINIQUE 05:01:56:000 D 68 116.50 PONT REMY, FRANCE
315 2092 DUFRENNE LAURENT 05:01:57:700 D 69 116.00 DUCLAIR, FRANCE
316 2083 BONTE ALAIN 05:01:58:000 E 106 97.50 BARENTIN, FRANCE
317 2091 AUDOUX YVES 05:01:58:000 F 79 111.00 VILLERS ECALLES, FRANCE
318 2295 DAY JOHN 05:02:00:000 F 80 110.50 EPSOM SURREY, Royaume-Uni
319 2354 VASSEUR FREDERIC 05:02:25:000 D 70 115.50 LHERAULE, FRANCE
320 2299 RACINE PASCAL 05:02:26:000 D 71 115.00 ABBEVILLE, FRANCE
321 2081 MALANDAIN FABRICE 05:02:28:500 D 72 114.50 EMANVILLE, FRANCE
322 2082 LETELLIER BRUNO 05:02:32:000 C 24 138.50 LES DAMPS, FRANCE
323 2194 SCHRODER PHILIPPE 05:02:32:000 E 107 97.00 BAVELLES, FRANCE
324 1532 SAVARY JEAN CLAUDE 05:02:38:000 C 25 138.00 SAINT CLOUD, France
325 2021 LUTUN DOMINIQUE 05:02:38:100 E 108 96.50 COMINES, FRANCE
326 2020 GILLES NICOLAS 05:02:41:000 C 26 137.50 COMINES, FRANCE
327 337 ALASDAIR RAILTON 05:02:43:000 D 73 114.00 CORNWALL, Royaume-Uni
328 2019 DURIEZ LUC 05:02:44:000 F 81 110.00 COMINES, FRANCE
329 2118 HOEST FREDERIC 05:02:44:700 C 27 137.00 COMINES, FRANCE
330 2051 KELLY EUGENE 05:02:57:000 F 82 109.50 MALTON NORTH YORKSHIRE, Royaume-Uni
331 2352 PITRE JOSE 05:02:58:000 C 28 136.50 VAUX, FRANCE
332 2179 COLLIN JACKIE 05:03:05:000 E 109 96.00 EAUCOURT, FRANCE
333 2050 KELLY PHILLIP 05:03:10:700 D 74 113.50 BURNTWOOD, UK
334 2290 SCHWARZ PATRICK 05:03:24:000 E 110 95.50 ABBEVILLE, FRANCE
335 2300 TRULLARD PIERRE 05:03:32:000 G 28 136.50 ABBEVILLE, FRANCE
336 1523 SEIJAS ANTOINE 05:03:46:100 G 29 136.00 MASSY, FRANCE
337 2049 DOUCET CLAUDE 05:04:40:500 G 30 135.50 MASSY, FRANCE
338 590 HUBERT ALAIN 05:05:08:000 F 83 109.00 BARENTIN, FRANCE
339 348 ARCHER STEPHEN 05:08:36:000 E 111 95.00 CANTERBURY, Royaume-Uni
340 2288 CANDRE STPHANE 05:09:01:000 D 75 113.00 ABBEVILLE, FRANCE
341 1538 VAN SOEST OLE JAN 05:09:01:800 E 112 94.50 SCHIPLUFDEN, Pays-Bas
342 2369 METAYER GUY 05:09:11:000 F 84 108.50 STE GENEVIEVE, FRANCE
343 2243 VARLET JOSE 05:10:24:000 F 85 108.00 GRANDVILLIERS, FRANCE
344 2182 DEPREZ LOUIS 05:10:26:000 G 31 135.00 ABBEVILLE, FRANCE
345 2028 LEMIRE ERIC 05:10:28:000 E 113 94.00 STE GENEVIEVE, FRANCE
346 2279 REDONNET JEAN CLAUDE 05:10:32:700 F 86 107.50 ST RIQUIER, FRANCE
347 2027 POIX DOMINIQUE 05:10:37:000 D 76 112.50 CHAMANT, FRANCE
348 2292 HOLMES BRIAN 05:14:00:000 G 32 134.50 BRENDWOOD ESSEX, Royaume-Uni
349 2293 BLACKSLEY COLIN 05:14:05:200 G 33 134.00 BRENTWOOD ESSEX, Royaume-Uni
350 2121 STERNAT PASCAL 05:15:23:000 D 77 112.00 AMIENS, FRANCE
351 2394 DELABROYE ROGER 05:15:50:000 F 87 107.00 LE BOISLE, FRANCE
352 2040 HUET ROGER 05:16:01:000 F 88 106.50 MASNIERES, FRANCE
353 2355 FENUEIL GERARD 05:16:01:000 G 34 133.50 CREVECOEUR, FRANCE
354 2045 BOURGEOIS REMI 05:16:02:100 C 29 136.00 RUE, FRANCE
355 2042 RICQUE JEAN LUC 05:16:03:200 F 89 106.00 MASNIERES, FRANCE
356 2001 BRUCKWILDER HANS JORG 05:17:02:000 E 114 93.50 COLOGNE, ALLEMAGNE
357 2249 ASHDOWN JOHN 05:17:40:000 G 35 133.00 NEW ROMNEY KENT, Royaume-Uni
358 2350 RAVERA CLAUDE 05:19:18:000 E 115 93.00 SAINT-GOBAIN, FRANCE
359 2114 CARPENTIER JACQUES 05:19:19:100 F 90 105.50 BEAUTOR, FRANCE
360 2113 CARPENTIER PATRICIA 05:19:40:000 B 5 148.00 BEAUTOR, FRANCE
361 2180 COLLIN XAVIER 05:19:56:100 D 78 111.50 EAUCOURT SUR SOMME, FRANCE
362 2003 BOURGEOIS DANIEL 05:20:32:000 F 91 105.00 RUE, FRANCE
363 2230 BOUCART OLIVIER 05:21:25:000 E 116 92.50 SORRUS, FRANCE
364 2016 CLIVE LEWIS 05:21:28:000 E 117 92.00 PINKNEYS GREEN MAIDENHEAD, Royaume-Uni
365 2066 LECUL BERNARD 05:21:28:200 F 92 104.50 GOUY-SAINT-ANDRE, FRANCE
366 1518 HAKIM ANTOINE MOHANED 05:21:45:000 E 118 91.50 MANTES LA JOLIE, FRANCE
367 2390 BALIQUE CHRISTOPHE 05:22:10:900 D 79 111.00 EPPEVILLE, FRANCE
368 2223 SUROWIEC JEAN-MARIE 05:22:20:000 F 93 104.00 LONG, France
369 2039 CAPON CHRISTOPHE 05:23:01:000 D 80 110.50 MASNIERES, FRANCE
370 2189 MUIDEBLED THOMAS 05:23:38:000 C 30 135.50 BOUILLANCOURT EN SERY, FRANCE
371 2065 BAILLEUL PHILIPPE 05:23:46:000 E 119 91.00 BOUILLANCOURT EN SERY, FRANCE
372 2041 COCRELLE DIDIER 05:24:03:500 F 94 103.50 MASNIERES, FRANCE
374 2026 BEGUIN MARC 05:24:44:000 D 81 110.00 COLOMBES, FRANCE
375 2168 TABARY PHILIPPE 05:24:46:100 E 121 90.00 EU, FRANCE
376 2159 BRUNET JEAN JACQUES 05:24:49:000 F 95 103.00 LA MOTTE, FRANCE
377 2212 PIERRE FRANCIS 05:24:52:600 F 96 102.50 ABBEVILLE, FRANCE
378 2219 BACQUET LIONEL 05:24:55:000 F 97 102.00 LONGPRE LES CORPS SAINTS, FRANCE
379 2228 BILLET DIDIER 05:24:58:000 E 122 89.50 POMART EN PONTHIEU, FRANCE
380 2184 JOSSE MARCEL 05:25:54:000 F 98 101.50 PONT REMY, FRANCE
381 2023 LEJEUNE PHILIPPE 05:27:40:000 D 82 109.50 LIERNEUX, BELGIQUE
383 2245 LESENFANTS LEON 05:27:41:600 F 99 101.00 LIERNEUX, BELGIQUE
384 65 LESOT GERARD 05:29:57:400 F 100 100.50 PARIS, FRANCE
385 2238 LARIVIERE BERNARD 05:30:41:000 G 36 132.50 ABBEVILLE, FRANCE
386 356 PICCOLI DIDIER 05:31:06:900 D 84 108.50 CREIL, FRANCE
387 2058 PICCOLI BERNARD 05:31:07:000 F 101 100.00 LAIGNEVILLE, FRANCE
388 2250 ROLLAND XAVIER 05:31:08:000 E 123 89.00 LE PERREUX SUR MARNE, FRANCE
389 2261 BOUCHER DOMINIQUE 05:33:25:000 E 124 88.50 SAIGNEVILLE, France
390 2231 NOYON ERIC 05:33:33:000 E 125 88.00 MESSAS, FRANCE
391 2277 DUHAMEL DAVID 05:33:34:000 D 85 108.00 SAILLY FLIBEAUCOURT, FRANCE
392 2055 PATTEEUW RAYMOND 05:37:28:000 E 126 87.50 MONCHY ST ELOI, FRANCE
393 2054 GEOFFRAY DANIEL 05:37:33:000 F 102 99.50 THIVERNY, FRANCE
394 2392 MOPTY OLIVIER 05:37:42:000 D 86 107.50 AILLY LE HAUT CLOCHER, FRANCE
395 2313 LEJEUNE PIERRE 05:38:27:000 F 103 99.00 NAMUR, BELGIQUE
396 2133 CASTEL BERNARD 05:38:55:000 G 37 132.00 VILLERS COTTERETS, FRANCE
397 2136 CASTEL HUBERT 05:38:57:000 G 38 131.50 OIGNY EN VALOIS, FRANCE
398 2037 DAVENPORT STEPHEN 05:39:51:000 E 127 87.00 SEVENOAKS, KENT, Royaume-Uni
399 2217 LECOMPTE JOSE 05:40:03:000 F 104 98.50 ABBEVILLE, FRANCE
400 2398 PIERDET JEAN 05:40:15:000 E 128 86.50 ANSAUVILLERS, FRANCE
401 2102 MAZY LAURENT 05:40:29:000 G 39 131.00 LANCHERES, FRANCE
402 2004 CHOCHOY FRANCELINE 05:40:30:300 B 6 147.50 BRUNOY, FRANCE
403 2276 CHOCHOY DANIEL 05:40:30:500 G 40 130.50 BRUNOY, FRANCE
404 2103 MAZY ELISABETH 05:40:32:000 B 7 147.00 LANCHERES, FRANCE
405 2396 BANAS LADISLAS 05:40:38:100 G 41 130.00 ABBEVILLE, FRANCE
406 2345 SANSON DENIS 05:43:02:000 F 105 98.00 STE GENEVIEVE, FRANCE
407 2347 BOURSEAU PATRICK 05:43:02:500 E 129 86.00 BEAUVAIS, FRANCE
408 2174 CAUMONT EDMOND 05:43:10:000 G 42 129.50 HALLENCOURT, FRANCE
409 2284 DELAPORTE ANGE 05:45:06:800 F 106 97.50 LONG, FRANCE
410 2257 DEMAREST FRANCIS 05:46:16:000 E 130 85.50 ASNIERES SUR SEINE, FRANCE
411 2344 BOURSEAU PATRICE 05:46:34:000 F 107 97.00 BEAUVAIS, FRANCE
412 2346 LEGROS BRUNO 05:46:36:000 E 131 85.00 BEAUVAIS, FRANCE
413 2160 GOLLAIN JACQUES 05:48:39:000 G 43 129.00 ANTONY, FRANCE
414 2183 GUETRE BERNARD 05:53:25:000 F 108 96.50 ABBEVILLE, FRANCE
415 2381 LOUANDRE LUDOVIC 05:53:45:000 D 87 107.00 ABBEVILLE, France
416 2397 ENDEAN REES HELEN 05:54:37:000 A 4 148.50 DEVON, Royaume-Uni
417 2069 JORDEN CHRIS 05:54:40:000 F 109 96.00 STAFFORDSHIRE, Royaume-Uni
418 2373 RATEL MARC 05:56:32:000 F 110 95.50 , FRANCE
419 1509 MALLO FREDERIC 05:56:34:700 F 111 95.00 ST QUENTIN, FRANCE
420 2304 VITEL PASCAL 05:56:50:000 E 132 84.50 ABBEVILLE, FRANCE
422 2272 MACRON MICHEL 05:59:45:000 F 112 94.50 ABBEVILLE, FRANCE
423 2282 CLAVEL MICHEL 05:59:45:800 G 44 128.50 DRUCAT, FRANCE
424 2283 CAPELLARI JEAN 06:00:21:000 G 45 128.00 CROUY, FRANCE
425 2190 PUAUD ALEXANDRE 06:00:41:000 C 31 135.00 NANTES, FRANCE
426 15 GUILBERT ALAIN 06:03:58:000 F 113 94.00 PONT REMY, FRANCE
427 2251 SCHOONDERWOERD SPEE JEANNETTE 06:06:26:000 B 8 146.50 GOUDA, Pays-Bas
428 2275 MACRON FRANCK 06:15:52:000 D 88 106.50 PARIS, FRANCE
429 2181 COURSIER GUYLAIN 06:19:05:000 F 114 93.50 EPAGNE EPAGNETTE, FRANCE
430 2391 GLORIAN GUY 06:19:30:000 F 115 93.00 LIEVIN, France
431 2393 WARGNEZ ALAIN 06:19:31:000 F 116 92.50 AVESNES LES AUBERT, FRANCE
432 2273 FLAMANT VINCENT 06:21:13:000 E 133 84.00 ABBEVILLE, FRANCE
433 2044 ROE MARK 06:24:00:000 E 134 83.50 LONDON, Royaume-Uni
434 5005 WATKINS ANN 06:55:33:000 B 9 146.00 STAFFORDSHIRE, Royaume-Uni
435 2191 DERCOURT JOEL 07:07:52:000 D 89 106.00 SAILLY BRAY, FRANCE
436 2116 ENGLISH DENNIS 07:22:07:000 G 46 127.50 CARUSLE, Royaume-Uni

La Picarde Baie de Somme

Après une saison 2020 très particulière et face à cette pandémie qui s'étire en longueur, nous avons dû nous adapter.

Ainsi, c'est avec beaucoup de regrets que nous vous annonçons que La Picarde Baie de Somme ne sera pas organisée en 2021.

Nous travaillons afin que vous puissiez relever le défi de manière alternative.

Nous vous tiendrons informés.
TOP